Time;durP1;ratioP1;P1;durP2;ratioP2;P2;SDS_P1;SDS_P2;PMS_P1;PMS_P2;Temp;Humidity;BMP_temperature;BMP_pressure;BME280_temperature;BME280_humidity;BME280_pressure;Samples;Min_cycle;Max_cycle;Signal;HPM_P1;HPM_P2
2021/08/14 00:01:59;;;;;;;24.25;5.70;;;;;;;16.46;91.37;102311.31;4981506;28;20054;-71
2021/08/14 00:04:27;;;;;;;17.55;4.57;;;;;;;16.46;91.45;102311.31;4984147;28;20833;-77
2021/08/14 00:06:55;;;;;;;17.95;5.05;;;;;;;16.48;91.75;102301.38;4980473;28;20070;-77
2021/08/14 00:09:23;;;;;;;17.08;5.05;;;;;;;16.52;91.82;102294.06;4978418;28;20090;-76
2021/08/14 00:11:50;;;;;;;18.33;4.80;;;;;;;16.50;91.76;102293.22;4982928;28;20073;-75
2021/08/14 00:14:20;;;;;;;16.98;5.13;;;;;;;16.50;91.59;102304.91;4983990;28;20361;-78
2021/08/14 00:16:48;;;;;;;19.85;5.55;;;;;;;16.50;92.25;102301.31;4988178;28;20066;-75
2021/08/14 00:19:16;;;;;;;20.55;6.70;;;;;;;16.47;92.13;102305.00;4982071;28;20062;-78
2021/08/14 00:21:44;;;;;;;18.83;4.95;;;;;;;16.52;91.95;102305.72;4982465;28;20382;-76
2021/08/14 00:24:12;;;;;;;17.08;5.18;;;;;;;16.50;92.41;102315.69;4979823;28;20104;-76
2021/08/14 00:26:40;;;;;;;24.48;5.72;;;;;;;16.51;92.35;102306.63;4983492;28;20062;-76
2021/08/14 00:29:08;;;;;;;19.05;5.35;;;;;;;16.49;92.45;102305.81;4982139;28;20474;-75
2021/08/14 00:31:40;;;;;;;24.15;6.05;;;;;;;16.48;92.63;102303.16;4982305;28;20062;-76
2021/08/14 00:34:08;;;;;;;17.98;5.40;;;;;;;16.46;93.01;102302.34;4984050;28;20066;-76
2021/08/14 00:36:36;;;;;;;28.15;6.32;;;;;;;16.43;92.76;102300.66;4979697;28;20113;-76
2021/08/14 00:39:04;;;;;;;19.98;5.35;;;;;;;16.44;93.02;102295.19;4980393;28;20065;-76
2021/08/14 00:41:32;;;;;;;17.30;5.10;;;;;;;16.45;93.12;102298.78;4982667;28;20065;-75
2021/08/14 00:44:01;;;;;;;18.52;5.93;;;;;;;16.46;93.30;102295.13;4980957;28;20349;-76
2021/08/14 00:46:30;;;;;;;23.58;5.95;;;;;;;16.41;93.64;102291.72;4980812;28;20121;-78
2021/08/14 00:49:00;;;;;;;20.08;5.43;;;;;;;16.45;93.48;102298.78;4979076;28;20076;-76
2021/08/14 00:51:28;;;;;;;23.55;5.93;;;;;;;16.42;93.43;102299.75;4981596;28;20097;-76
2021/08/14 00:53:56;;;;;;;21.85;6.32;;;;;;;16.42;93.99;102296.19;4981142;28;20116;-76
2021/08/14 00:56:26;;;;;;;18.38;5.35;;;;;;;16.43;93.69;102290.75;4982052;28;20097;-77
2021/08/14 00:58:54;;;;;;;17.42;5.32;;;;;;;16.46;93.51;102292.44;4981442;28;20062;-76
2021/08/14 01:01:23;;;;;;;25.08;5.95;;;;;;;16.45;94.14;102296.09;4981644;28;20383;-77
2021/08/14 01:03:54;;;;;;;23.70;6.72;;;;;;;16.42;93.26;102294.38;4982391;28;20112;-78
2021/08/14 01:06:24;;;;;;;16.83;5.90;;;;;;;16.47;94.11;102296.91;4978581;28;20073;-76
2021/08/14 01:08:53;;;;;;;19.63;5.45;;;;;;;16.48;94.07;102292.41;4982416;28;20043;-76
2021/08/14 01:11:22;;;;;;;22.77;6.13;;;;;;;16.48;94.36;102287.00;4981299;28;20448;-76
2021/08/14 01:13:50;;;;;;;23.05;6.30;;;;;;;16.49;94.34;102284.25;4981706;28;20066;-76
2021/08/14 01:16:17;;;;;;;25.00;5.88;;;;;;;16.50;94.01;102285.13;4980708;28;20062;-78
2021/08/14 01:18:47;;;;;;;23.40;6.25;;;;;;;16.50;94.38;102294.13;4980872;28;20065;-76
2021/08/14 01:21:17;;;;;;;24.55;5.97;;;;;;;16.49;94.31;102288.78;4983417;28;20529;-75
2021/08/14 01:23:47;;;;;;;17.90;5.53;;;;;;;16.49;94.43;102283.41;4981048;28;20066;-78
2021/08/14 01:26:16;;;;;;;20.58;5.28;;;;;;;16.49;94.31;102284.25;4981809;28;20073;-75
2021/08/14 01:28:45;;;;;;;21.27;5.78;;;;;;;16.50;93.86;102279.75;4982390;28;20085;-75
2021/08/14 01:31:15;;;;;;;18.33;5.78;;;;;;;16.51;94.00;102270.75;4981305;28;20070;-78
2021/08/14 01:33:44;;;;;;;19.58;5.60;;;;;;;16.49;94.00;102278.00;4978792;28;20070;-76
2021/08/14 01:36:14;;;;;;;18.63;5.15;;;;;;;16.50;94.14;102268.97;4981786;28;20066;-78
2021/08/14 01:38:47;;;;;;;20.75;5.70;;;;;;;16.46;94.20;102261.94;4979659;28;20315;-77
2021/08/14 01:41:15;;;;;;;22.25;7.10;;;;;;;16.46;94.54;102273.59;4979757;28;20130;-77
2021/08/14 01:43:57;;;;;;;20.30;5.80;;;;;;;16.45;94.90;102263.75;4981429;28;21736;-76
2021/08/14 01:46:27;;;;;;;16.70;5.82;;;;;;;16.44;94.14;102257.47;4981453;28;20145;-77
2021/08/14 01:48:54;;;;;;;25.92;6.88;;;;;;;16.42;94.42;102262.03;4979465;28;20069;-77
2021/08/14 01:51:22;;;;;;;21.52;6.03;;;;;;;16.43;94.88;102269.19;4982996;28;20067;-77
2021/08/14 01:53:53;;;;;;;20.70;6.07;;;;;;;16.43;94.37;102260.25;4978458;28;20105;-76
2021/08/14 01:56:22;;;;;;;22.73;6.20;;;;;;;16.40;94.69;102263.91;4980775;28;20065;-77
2021/08/14 01:58:50;;;;;;;26.17;6.25;;;;;;;16.39;94.65;102253.19;4979048;28;20366;-77
2021/08/14 02:01:19;;;;;;;22.23;5.68;;;;;;;16.42;94.42;102269.25;4983147;28;20141;-76
2021/08/14 02:03:47;;;;;;;19.95;6.32;;;;;;;16.42;94.30;102256.66;4980333;28;20058;-76
2021/08/14 02:06:15;;;;;;;19.33;6.65;;;;;;;16.43;94.14;102258.44;4981649;28;20793;-76
2021/08/14 02:08:43;;;;;;;20.48;6.10;;;;;;;16.43;94.56;102253.03;4978669;28;20583;-77
2021/08/14 02:11:13;;;;;;;21.38;5.95;;;;;;;16.43;94.40;102266.50;4980316;28;20051;-78
2021/08/14 02:13:41;;;;;;;17.90;7.25;;;;;;;16.42;94.83;102248.56;4981461;28;20093;-78
2021/08/14 02:16:09;;;;;;;21.67;6.32;;;;;;;16.39;95.13;102245.97;4982042;28;20062;-77
2021/08/14 02:18:39;;;;;;;19.98;7.07;;;;;;;16.39;95.38;102248.66;4978521;28;20097;-77
2021/08/14 02:21:07;;;;;;;22.20;6.10;;;;;;;16.39;95.50;102247.81;4980068;28;20070;-77
2021/08/14 02:23:35;;;;;;;28.38;6.38;;;;;;;16.39;95.66;102237.91;4978440;28;20063;-77
2021/08/14 02:26:04;;;;;;;19.27;5.70;;;;;;;16.45;94.96;102234.13;4980445;28;20066;-77
2021/08/14 02:28:32;;;;;;;17.80;5.97;;;;;;;16.41;95.17;102227.97;4980683;28;20364;-77
2021/08/14 02:31:01;;;;;;;18.70;6.28;;;;;;;16.40;95.55;102225.34;4981218;28;20104;-77
2021/08/14 02:33:29;;;;;;;24.08;7.07;;;;;;;16.37;95.51;102234.38;4979783;28;20062;-76
2021/08/14 02:35:59;;;;;;;23.52;7.18;;;;;;;16.38;95.69;102235.28;4979421;28;20352;-76
2021/08/14 02:38:27;;;;;;;24.77;6.90;;;;;;;16.36;95.76;102227.25;4979803;28;20058;-77
2021/08/14 02:40:55;;;;;;;19.00;6.63;;;;;;;16.39;95.96;102226.25;4978482;28;20070;-76
2021/08/14 02:43:22;;;;;;;19.50;6.25;;;;;;;16.36;95.95;102227.25;4980376;28;20102;-77
2021/08/14 02:45:50;;;;;;;22.38;6.63;;;;;;;16.37;96.04;102223.59;4980496;28;20066;-77
2021/08/14 02:48:18;;;;;;;18.98;6.13;;;;;;;16.38;95.89;102230.75;4980087;28;20341;-77
2021/08/14 02:50:47;;;;;;;18.65;5.88;;;;;;;16.36;96.35;102229.94;4976501;28;20070;-77
2021/08/14 02:53:16;;;;;;;22.85;6.25;;;;;;;16.37;96.18;102229.00;4979706;28;20058;-78
2021/08/14 02:55:44;;;;;;;21.88;5.65;;;;;;;16.38;96.52;102233.47;4979818;28;20062;-77
2021/08/14 02:58:12;;;;;;;26.67;8.38;;;;;;;16.33;96.74;102232.75;4978448;28;20120;-77
2021/08/14 03:00:39;;;;;;;21.25;6.03;;;;;;;16.34;96.60;102236.31;4979990;28;20532;-77
2021/08/14 03:03:07;;;;;;;20.15;6.55;;;;;;;16.34;96.89;102237.16;4978500;28;20183;-77
2021/08/14 03:05:36;;;;;;;17.42;6.85;;;;;;;16.33;96.97;102243.50;4979166;28;20067;-76
2021/08/14 03:08:08;;;;;;;30.42;6.40;;;;;;;16.36;97.12;102239.81;4979212;28;20063;-77
2021/08/14 03:10:38;;;;;;;22.48;5.55;;;;;;;16.30;97.26;102230.16;4978063;28;20066;-77
2021/08/14 03:13:07;;;;;;;22.73;6.90;;;;;;;16.30;96.69;102232.84;4977305;28;20066;-76
2021/08/14 03:15:34;;;;;;;28.30;7.38;;;;;;;16.27;97.29;102235.63;4979341;28;20441;-76
2021/08/14 03:18:03;;;;;;;23.05;7.13;;;;;;;16.28;97.41;102239.19;4978288;28;20070;-76
2021/08/14 03:20:31;;;;;;;20.25;7.68;;;;;;;16.25;97.21;102232.13;4981032;28;20449;-77
2021/08/14 03:22:58;;;;;;;18.95;5.75;;;;;;;16.24;96.87;102230.34;4975966;28;20047;-77
2021/08/14 03:25:27;;;;;;;20.08;6.05;;;;;;;16.24;97.36;102238.41;4980075;28;20093;-77
2021/08/14 03:27:56;;;;;;;18.65;5.63;;;;;;;16.20;97.29;102231.38;4980917;28;20065;-77
2021/08/14 03:30:23;;;;;;;17.88;6.45;;;;;;;16.16;97.44;102230.63;4978371;28;20359;-76
2021/08/14 03:32:52;;;;;;;21.65;6.40;;;;;;;16.17;97.42;102221.59;4978660;28;20066;-76
2021/08/14 03:35:21;;;;;;;17.90;5.85;;;;;;;16.16;97.20;102224.34;4981632;28;20098;-76
2021/08/14 03:37:49;;;;;;;20.90;6.20;;;;;;;16.14;97.21;102227.09;4977018;28;20577;-77
2021/08/14 03:40:17;;;;;;;20.20;6.30;;;;;;;16.14;97.86;102226.19;4980804;28;20077;-77
2021/08/14 03:42:45;;;;;;;21.95;6.72;;;;;;;16.12;97.77;102220.00;4980013;28;20113;-76
2021/08/14 03:45:14;;;;;;;19.67;5.63;;;;;;;16.08;97.96;102219.22;4980464;28;20758;-77
2021/08/14 03:47:41;;;;;;;19.42;6.07;;;;;;;16.08;98.23;102218.34;4979209;28;20539;-77
2021/08/14 03:50:10;;;;;;;24.35;6.38;;;;;;;16.04;97.64;102213.06;4980019;28;20136;-77
2021/08/14 03:52:38;;;;;;;19.63;5.85;;;;;;;16.05;97.78;102216.63;4978110;28;20066;-76
2021/08/14 03:55:07;;;;;;;20.90;6.70;;;;;;;16.04;97.70;102210.38;4979767;28;20326;-77
2021/08/14 03:57:36;;;;;;;22.60;7.00;;;;;;;15.99;98.54;102209.63;4977997;28;20153;-76
2021/08/14 04:00:05;;;;;;;19.40;7.63;;;;;;;15.96;98.07;102212.44;4982409;28;20455;-78
2021/08/14 04:02:34;;;;;;;25.98;7.45;;;;;;;15.93;98.80;102212.50;4981624;28;20057;-76
2021/08/14 04:05:02;;;;;;;20.50;6.28;;;;;;;15.81;98.77;102215.63;4983269;28;20062;-76
2021/08/14 04:07:30;;;;;;;19.45;6.90;;;;;;;15.74;98.34;102220.28;4983868;28;20297;-77
2021/08/14 04:09:57;;;;;;;25.13;8.23;;;;;;;15.65;98.20;102212.50;4982203;28;20394;-73
2021/08/14 04:12:25;;;;;;;20.35;6.80;;;;;;;15.61;98.21;102217.13;4980237;28;20070;-71
2021/08/14 04:14:53;;;;;;;22.23;6.82;;;;;;;15.56;98.21;102220.84;4982298;28;20505;-71
2021/08/14 04:17:31;;;;;;;22.20;6.93;;;;;;;15.49;98.26;102220.16;4980580;28;20058;-72
2021/08/14 04:20:01;;;;;;;24.55;6.60;;;;;;;15.46;98.68;102223.84;4982248;28;20062;-72
2021/08/14 04:22:28;;;;;;;16.05;6.35;;;;;;;15.47;98.19;102219.34;4982650;28;20069;-71
2021/08/14 04:24:56;;;;;;;17.38;6.22;;;;;;;15.43;97.97;102217.69;4980551;28;20050;-72
2021/08/14 04:27:24;;;;;;;18.35;6.45;;;;;;;15.36;98.58;102225.06;4981780;28;20113;-72
2021/08/14 04:29:51;;;;;;;18.75;7.10;;;;;;;15.38;98.34;102215.13;4981618;28;20069;-72
2021/08/14 04:32:19;;;;;;;22.58;6.95;;;;;;;15.35;98.66;102215.22;4979789;28;20105;-72
2021/08/14 04:34:47;;;;;;;21.75;6.97;;;;;;;15.28;98.74;102209.13;4979619;28;20464;-72
2021/08/14 04:37:16;;;;;;;25.90;6.43;;;;;;;15.25;99.04;102214.59;4982765;28;20327;-72
2021/08/14 04:39:44;;;;;;;20.08;6.50;;;;;;;15.21;99.01;102212.06;4982086;28;20184;-73
2021/08/14 04:42:12;;;;;;;22.95;7.05;;;;;;;15.23;98.90;102208.38;4978940;28;20164;-73
2021/08/14 04:44:39;;;;;;;20.35;6.90;;;;;;;15.17;99.29;102210.38;4980539;28;20182;-72
2021/08/14 04:47:07;;;;;;;23.17;6.75;;;;;;;15.17;99.19;102205.00;4979703;28;20082;-72
2021/08/14 04:49:38;;;;;;;23.08;7.75;;;;;;;15.20;98.52;102213.84;4979565;28;20071;-71
2021/08/14 04:52:06;;;;;;;21.88;7.32;;;;;;;15.15;99.18;102207.72;4981250;28;20452;-72
2021/08/14 04:54:35;;;;;;;24.45;7.50;;;;;;;15.13;99.15;102207.78;4981355;28;20341;-72
2021/08/14 04:57:03;;;;;;;28.70;7.82;;;;;;;15.12;99.68;102216.78;4979456;28;20062;-72
2021/08/14 04:59:30;;;;;;;28.85;7.57;;;;;;;15.18;99.27;102206.78;4979518;28;20089;-72
2021/08/14 05:01:58;;;;;;;23.60;8.18;;;;;;;15.22;99.41;102198.56;4980690;28;20085;-72
2021/08/14 05:04:26;;;;;;;20.75;7.68;;;;;;;15.29;98.82;102216.28;4981589;28;20606;-72
2021/08/14 05:06:54;;;;;;;22.55;7.93;;;;;;;15.29;98.82;102215.41;4980209;28;20430;-73
2021/08/14 05:09:22;;;;;;;22.60;7.70;;;;;;;15.30;98.99;102211.78;4983912;28;21047;-72
2021/08/14 05:11:51;;;;;;;22.88;7.15;;;;;;;15.37;99.02;102218.72;4980265;28;20070;-72
2021/08/14 05:14:19;;;;;;;29.05;9.48;;;;;;;15.34;98.80;102213.47;4982080;28;20066;-72
2021/08/14 05:16:47;;;;;;;31.77;9.07;;;;;;;15.36;98.74;102218.75;4980969;28;20455;-71
2021/08/14 05:19:15;;;;;;;23.50;8.90;;;;;;;15.40;98.69;102207.88;4983116;28;20062;-72
2021/08/14 05:21:42;;;;;;;23.38;8.32;;;;;;;15.43;98.33;102215.84;4981484;28;20089;-72
2021/08/14 05:24:11;;;;;;;25.75;8.77;;;;;;;15.49;98.26;102209.41;4978991;28;20193;-77
2021/08/14 05:26:39;;;;;;;28.75;9.77;;;;;;;15.55;98.43;102206.53;4982100;28;20063;-77
2021/08/14 05:29:08;;;;;;;28.80;8.07;;;;;;;15.72;97.67;102210.50;4980180;28;20071;-77
2021/08/14 05:31:36;;;;;;;25.20;8.80;;;;;;;15.81;97.30;102221.88;4984436;28;20331;-77
2021/08/14 05:34:05;;;;;;;27.00;9.45;;;;;;;15.94;96.79;102214.28;4981777;28;20050;-76
2021/08/14 05:36:33;;;;;;;28.85;9.82;;;;;;;16.04;96.12;102222.94;4979945;28;20058;-77
2021/08/14 05:39:02;;;;;;;30.05;9.55;;;;;;;16.11;95.84;102221.81;4980350;28;20062;-76
2021/08/14 05:41:30;;;;;;;25.45;9.52;;;;;;;16.23;95.49;102232.16;4980652;28;20050;-77
2021/08/14 05:43:58;;;;;;;24.90;9.98;;;;;;;16.30;95.29;102230.16;4980951;28;20062;-76
2021/08/14 05:46:27;;;;;;;46.03;10.63;;;;;;;16.27;95.26;102222.16;4977491;28;20069;-76
2021/08/14 05:48:55;;;;;;;27.13;9.90;;;;;;;16.47;94.69;102210.72;4979848;28;20080;-76
2021/08/14 05:51:24;;;;;;;30.58;9.25;;;;;;;16.62;94.34;102209.28;4979970;28;20360;-78
2021/08/14 05:54:11;;;;;;;30.52;10.95;;;;;;;16.78;93.59;102218.56;4979263;28;20066;-77
2021/08/14 05:56:40;;;;;;;33.30;9.70;;;;;;;16.97;92.87;102223.31;4981207;28;20112;-77
2021/08/14 05:59:08;;;;;;;29.67;9.38;;;;;;;17.17;91.86;102220.75;4976453;28;20457;-76
2021/08/14 06:01:37;;;;;;;33.95;10.60;;;;;;;17.13;91.43;102213.72;4982602;28;20066;-77
2021/08/14 06:04:05;;;;;;;34.78;10.32;;;;;;;17.29;91.81;102222.09;4981912;28;20070;-76
2021/08/14 06:06:33;;;;;;;29.63;10.98;;;;;;;17.33;90.73;102221.06;4982231;28;20077;-77
2021/08/14 06:09:01;;;;;;;37.67;10.15;;;;;;;17.27;91.50;102223.97;4979108;28;20068;-77
2021/08/14 06:11:29;;;;;;;25.23;9.95;;;;;;;17.38;91.06;102225.38;4981591;28;20065;-77
2021/08/14 06:13:57;;;;;;;33.17;11.48;;;;;;;17.51;89.87;102222.16;4978721;28;20082;-77
2021/08/14 06:16:25;;;;;;;28.77;10.60;;;;;;;17.82;89.31;102209.25;4983013;28;20066;-77
2021/08/14 06:18:54;;;;;;;35.25;11.30;;;;;;;17.93;88.11;102217.81;4979535;28;20070;-77
2021/08/14 06:21:21;;;;;;;29.20;10.23;;;;;;;18.14;87.43;102220.56;4980895;28;20058;-77
2021/08/14 06:23:49;;;;;;;40.28;12.15;;;;;;;18.08;87.12;102222.59;4980251;28;20065;-77
2021/08/14 06:26:17;;;;;;;35.75;12.10;;;;;;;18.41;86.46;102213.97;4981434;28;20152;-76
2021/08/14 06:28:45;;;;;;;31.35;11.50;;;;;;;18.42;86.00;102215.75;4977959;28;20055;-76
2021/08/14 06:31:14;;;;;;;38.17;12.55;;;;;;;17.97;87.87;102235.66;4982575;28;20066;-77
2021/08/14 06:33:42;;;;;;;31.05;12.77;;;;;;;17.62;88.89;102231.63;4979787;28;20062;-77
2021/08/14 06:36:11;;;;;;;38.97;12.18;;;;;;;17.54;90.12;102242.75;4979826;28;20066;-77
2021/08/14 06:38:39;;;;;;;30.95;12.85;;;;;;;17.72;89.52;102233.03;4982133;28;20172;-77
2021/08/14 06:41:07;;;;;;;33.38;12.43;;;;;;;17.55;89.84;102237.28;4979116;28;20093;-77
2021/08/14 06:43:35;;;;;;;35.08;12.30;;;;;;;17.57;90.49;102239.94;4981737;28;20066;-78
2021/08/14 06:46:03;;;;;;;37.08;13.93;;;;;;;17.55;90.47;102252.59;4981357;28;20302;-71
2021/08/14 06:48:34;;;;;;;34.72;14.02;;;;;;;17.44;90.97;102255.72;4980305;28;20094;-72
2021/08/14 06:51:02;;;;;;;37.85;12.15;;;;;;;17.57;90.73;102257.94;4980198;28;20063;-71
2021/08/14 06:53:31;;;;;;;44.58;13.38;;;;;;;17.51;91.01;102257.22;4977705;28;20097;-72
2021/08/14 06:56:00;;;;;;;35.03;12.80;;;;;;;17.73;90.09;102262.66;4978707;28;20050;-72
2021/08/14 06:58:27;;;;;;;41.65;13.50;;;;;;;17.59;90.40;102265.03;4980778;28;20062;-71
2021/08/14 07:00:55;;;;;;;31.85;13.93;;;;;;;17.66;90.34;102258.44;4980179;28;20622;-72
2021/08/14 07:03:23;;;;;;;35.55;14.23;;;;;;;17.68;90.62;102248.47;4979606;28;20603;-77
2021/08/14 07:05:51;;;;;;;35.92;14.02;;;;;;;17.70;90.56;102251.97;4979992;28;20066;-77
2021/08/14 07:08:19;;;;;;;33.67;13.23;;;;;;;17.85;90.09;102249.63;4978625;28;20081;-77
2021/08/14 07:10:49;;;;;;;37.03;13.55;;;;;;;17.90;89.80;102244.94;4978104;28;20074;-77
2021/08/14 07:13:16;;;;;;;35.53;13.57;;;;;;;17.94;89.72;102253.81;4980693;28;20065;-77
2021/08/14 07:15:45;;;;;;;41.28;15.23;;;;;;;17.98;89.73;102250.03;4976862;28;20059;-77
2021/08/14 07:18:13;;;;;;;44.05;15.23;;;;;;;18.11;89.16;102244.03;4976113;28;20062;-77
2021/08/14 07:20:40;;;;;;;37.20;14.43;;;;;;;18.12;89.28;102247.66;4979234;28;20126;-77
2021/08/14 07:23:08;;;;;;;33.95;14.00;;;;;;;18.24;88.81;102241.72;4982015;28;20058;-77
2021/08/14 07:25:36;;;;;;;37.88;13.07;;;;;;;18.39;88.54;102236.59;4979636;28;20069;-77
2021/08/14 07:28:05;;;;;;;38.53;15.45;;;;;;;18.79;86.45;102240.28;4980505;28;20066;-77
2021/08/14 07:30:33;;;;;;;36.83;14.48;;;;;;;19.42;83.72;102241.00;4980949;28;20148;-77
2021/08/14 07:33:01;;;;;;;37.10;14.00;;;;;;;19.43;82.54;102236.47;4977072;28;20082;-77
2021/08/14 07:35:29;;;;;;;34.72;15.75;;;;;;;19.27;83.95;102238.13;4984636;28;20066;-77
2021/08/14 07:37:56;;;;;;;40.55;14.20;;;;;;;20.12;81.40;102233.13;4980528;28;20062;-77
2021/08/14 07:40:25;;;;;;;36.90;14.25;;;;;;;19.76;81.85;102243.97;4982683;28;20062;-78
2021/08/14 07:42:52;;;;;;;36.55;13.45;;;;;;;20.47;79.73;102238.59;4981359;28;20153;-77
2021/08/14 07:45:23;;;;;;;32.42;11.88;;;;;;;20.11;80.81;102227.81;4983243;28;20521;-78
2021/08/14 07:47:52;;;;;;;28.95;12.57;;;;;;;19.80;81.19;102225.72;4983106;28;20442;-78
2021/08/14 07:50:21;;;;;;;26.17;11.23;;;;;;;19.62;81.80;102225.66;4983201;28;20465;-77
2021/08/14 07:52:48;;;;;;;26.90;11.05;;;;;;;19.75;81.52;102226.84;4983872;28;20078;-78
2021/08/14 07:55:17;;;;;;;27.60;11.52;;;;;;;19.66;81.41;102235.34;4982703;28;20062;-76
2021/08/14 07:57:45;;;;;;;32.67;12.25;;;;;;;19.58;81.79;102233.03;4984149;28;20145;-76
2021/08/14 08:00:16;;;;;;;33.45;13.40;;;;;;;19.61;81.70;102234.72;4980256;28;20534;-76
2021/08/14 08:02:45;;;;;;;30.30;14.57;;;;;;;19.92;80.71;102233.25;4984345;28;20114;-76
2021/08/14 08:05:13;;;;;;;34.00;13.95;;;;;;;19.95;80.65;102227.69;4985561;28;20084;-77
2021/08/14 08:07:43;;;;;;;29.92;12.57;;;;;;;20.84;78.46;102220.41;4981452;28;20117;-77
2021/08/14 08:10:12;;;;;;;30.48;14.07;;;;;;;20.80;76.66;102223.38;4981353;28;20074;-77
2021/08/14 08:12:40;;;;;;;34.00;14.25;;;;;;;20.55;77.75;102221.03;4981279;28;20062;-77
2021/08/14 08:15:09;;;;;;;24.13;13.10;;;;;;;20.78;78.02;102220.72;4980907;28;20062;-76
2021/08/14 08:17:37;;;;;;;30.08;11.95;;;;;;;21.10;75.26;102220.84;4983307;28;20081;-71
2021/08/14 08:20:09;;;;;;;26.27;12.32;;;;;;;20.84;75.82;102217.69;4982231;28;20070;-72
2021/08/14 08:22:37;;;;;;;31.90;12.32;;;;;;;20.52;76.59;102225.66;4979286;28;20117;-71
2021/08/14 08:25:05;;;;;;;34.90;12.60;;;;;;;20.27;77.26;102228.75;4980242;28;20085;-72
2021/08/14 08:27:33;;;;;;;27.73;11.60;;;;;;;20.57;77.46;102229.97;4983007;28;20054;-72
2021/08/14 08:30:01;;;;;;;32.45;11.82;;;;;;;20.89;75.08;102225.56;4986106;28;20779;-71
2021/08/14 08:32:28;;;;;;;23.67;10.68;;;;;;;20.65;75.66;102219.63;4982685;28;20121;-72
2021/08/14 08:34:56;;;;;;;31.20;10.43;;;;;;;21.24;73.49;102215.50;4982582;28;20427;-72
2021/08/14 08:37:25;;;;;;;26.52;10.32;;;;;;;20.70;74.73;102215.72;4981440;28;20113;-71
2021/08/14 08:39:53;;;;;;;32.15;11.52;;;;;;;20.78;75.29;102222.56;4981128;28;20156;-72
2021/08/14 08:42:21;;;;;;;22.70;10.73;;;;;;;21.49;73.14;102221.44;4979206;28;20070;-71
2021/08/14 08:44:48;;;;;;;26.63;9.82;;;;;;;21.33;72.30;102224.97;4980748;28;20050;-71
2021/08/14 08:47:17;;;;;;;22.85;9.10;;;;;;;21.96;70.81;102212.38;4982705;28;20053;-71
2021/08/14 08:49:52;;;;;;;19.17;9.00;;;;;;;22.48;68.17;102205.72;4982122;28;20058;-71
2021/08/14 08:52:20;;;;;;;24.20;9.82;;;;;;;21.96;68.37;102213.28;4983314;28;20184;-72
2021/08/14 08:54:50;;;;;;;22.80;9.18;;;;;;;22.42;67.36;102216.97;4980852;28;20058;-71
2021/08/14 08:57:19;;;;;;;23.25;8.75;;;;;;;22.96;65.42;102206.38;4979632;28;20676;-76
2021/08/14 08:59:48;;;;;;;21.88;8.93;;;;;;;22.72;66.23;102206.94;4980897;28;20117;-77
2021/08/14 09:02:23;;;;;;;20.77;8.10;;;;;;;23.28;65.06;102203.47;4982361;28;20146;-76
2021/08/14 09:05:10;;;;;;;19.75;8.45;;;;;;;22.10;66.24;102219.72;4980658;28;20168;-77
2021/08/14 09:07:39;;;;;;;28.45;8.75;;;;;;;21.75;68.00;102220.81;4980061;28;20413;-76
2021/08/14 09:10:11;;;;;;;23.77;7.68;;;;;;;22.91;65.02;102205.78;4981931;28;20432;-77
2021/08/14 09:12:41;;;;;;;20.02;9.40;;;;;;;23.03;65.11;102212.31;4980214;28;20050;-77
2021/08/14 09:15:16;;;;;;;21.10;9.02;;;;;;;22.47;67.43;102209.41;4981167;28;20226;-77
2021/08/14 09:17:45;;;;;;;26.55;9.38;;;;;;;22.81;64.54;102210.91;4980962;28;20066;-77
2021/08/14 09:20:15;;;;;;;27.48;8.65;;;;;;;23.30;62.11;102207.84;4980014;28;20059;-78
2021/08/14 09:22:46;;;;;;;22.70;8.25;;;;;;;22.89;64.00;102213.16;4983494;28;20054;-76
2021/08/14 09:25:18;;;;;;;24.88;8.75;;;;;;;22.86;65.17;102205.19;4982719;28;20112;-77
2021/08/14 09:27:55;;;;;;;24.48;9.50;;;;;;;23.56;63.90;102201.66;4984457;28;20202;-77
2021/08/14 09:30:47;;;;;;;24.88;9.25;;;;;;;23.25;62.59;102209.13;4981153;28;20058;-77
2021/08/14 09:33:20;;;;;;;22.35;8.77;;;;;;;22.99;63.75;102211.63;4983407;28;20070;-76
2021/08/14 09:35:57;;;;;;;14.52;7.22;;;;;;;23.78;61.59;102209.31;4981185;28;20104;-75
2021/08/14 09:38:38;;;;;;;21.63;7.80;;;;;;;23.95;62.91;102198.16;4980249;28;20062;-76
2021/08/14 09:41:12;;;;;;;19.85;8.13;;;;;;;22.84;63.57;102204.41;4979272;28;20482;-76
2021/08/14 09:43:41;;;;;;;18.00;7.10;;;;;;;22.65;63.21;102212.84;4981569;28;20073;-76
2021/08/14 09:46:09;;;;;;;19.13;7.55;;;;;;;22.85;63.37;102217.03;4978929;28;20066;-76
2021/08/14 09:48:38;;;;;;;16.70;7.45;;;;;;;23.64;60.38;102215.66;4978597;28;20081;-76
2021/08/14 09:51:06;;;;;;;19.35;6.97;;;;;;;24.17;59.44;102199.44;4983211;28;20133;-76
2021/08/14 09:53:34;;;;;;;15.57;5.65;;;;;;;24.33;57.10;102208.34;4979985;28;20058;-75
2021/08/14 09:56:08;;;;;;;12.10;4.80;;;;;;;24.64;52.00;102202.59;4980172;28;20042;-76
2021/08/14 09:58:38;;;;;;;18.25;5.63;;;;;;;25.08;53.34;102204.00;4975935;28;20086;-75
2021/08/14 10:01:07;;;;;;;18.25;5.25;;;;;;;25.04;53.10;102207.97;4981727;28;20108;-74
2021/08/14 10:03:36;;;;;;;15.95;4.97;;;;;;;24.15;55.17;102204.13;4980399;28;20065;-75
2021/08/14 10:06:09;;;;;;;18.27;6.30;;;;;;;24.64;53.27;102203.50;4979326;28;20073;-72
2021/08/14 10:08:37;;;;;;;16.25;6.03;;;;;;;24.05;55.21;102207.47;4980083;28;20063;-71
2021/08/14 10:11:07;;;;;;;19.50;6.38;;;;;;;24.61;54.42;102204.56;4979711;28;20467;-71
2021/08/14 10:13:41;;;;;;;20.10;6.53;;;;;;;24.16;55.87;102211.31;4981326;28;20481;-71
2021/08/14 10:16:10;;;;;;;20.02;6.22;;;;;;;24.61;53.11;102206.44;4980449;28;20471;-71
2021/08/14 10:18:39;;;;;;;15.10;5.93;;;;;;;24.57;52.56;102202.19;4976901;28;20062;-72
2021/08/14 10:21:07;;;;;;;18.38;5.25;;;;;;;24.81;52.76;102199.56;4980037;28;20482;-71
2021/08/14 10:23:36;;;;;;;18.83;5.72;;;;;;;24.58;51.97;102212.09;4978755;28;20511;-71
2021/08/14 10:26:07;;;;;;;16.80;5.22;;;;;;;24.96;50.62;102198.47;4980128;28;20067;-71
2021/08/14 10:28:47;;;;;;;14.07;5.85;;;;;;;25.33;50.05;102205.88;4975856;28;20512;-71
2021/08/14 10:31:44;;;;;;;18.05;5.45;;;;;;;24.83;50.76;102208.50;4979199;28;20058;-71
2021/08/14 10:34:31;;;;;;;15.55;5.35;;;;;;;25.18;50.15;102207.81;4978094;28;20046;-71
2021/08/14 10:37:00;;;;;;;15.63;5.15;;;;;;;25.38;48.71;102219.19;4979016;28;20454;-71
2021/08/14 10:39:30;;;;;;;15.82;4.85;;;;;;;24.90;49.11;102204.34;4979299;28;20417;-71
2021/08/14 10:41:59;;;;;;;14.23;4.78;;;;;;;25.31;48.53;102205.97;4977542;28;20069;-74
2021/08/14 10:44:45;;;;;;;16.85;5.15;;;;;;;25.30;48.48;102208.81;4978427;28;20333;-75
2021/08/14 10:47:45;;;;;;;15.40;5.25;;;;;;;24.33;50.70;102210.16;4976364;28;20341;-75
2021/08/14 10:50:50;;;;;;;13.68;5.00;;;;;;;24.73;51.48;102210.16;4901892;29;20067;-76
2021/08/14 10:53:22;;;;;;;16.73;4.88;;;;;;;24.75;50.55;102203.59;4977889;28;20101;-75
2021/08/14 10:55:51;;;;;;;17.63;5.10;;;;;;;24.86;48.10;102194.66;4977271;28;20173;-71
2021/08/14 10:58:22;;;;;;;13.43;4.47;;;;;;;25.01;47.62;102197.25;4979902;28;20492;-71
2021/08/14 11:00:52;;;;;;;12.93;4.85;;;;;;;24.52;48.40;102209.75;4978395;28;20070;-71
2021/08/14 11:03:21;;;;;;;16.73;5.18;;;;;;;24.60;48.87;102202.84;4978546;28;20047;-71
2021/08/14 11:05:49;;;;;;;13.88;4.28;;;;;;;24.80;49.65;102203.28;4979237;28;20067;-71
2021/08/14 11:08:29;;;;;;;11.73;4.38;;;;;;;24.29;48.55;102203.19;4981691;28;20078;-71
2021/08/14 11:10:58;;;;;;;11.93;4.63;;;;;;;25.10;47.56;102202.94;4978120;28;20390;-71
2021/08/14 11:13:42;;;;;;;13.07;4.78;;;;;;;25.46;48.34;102201.25;4980783;28;20103;-71
2021/08/14 11:16:31;;;;;;;13.15;5.03;;;;;;;25.16;47.77;102204.34;4979695;28;20644;-75
2021/08/14 11:19:00;;;;;;;13.52;4.15;;;;;;;25.31;45.98;102208.72;4977357;28;20073;-75
2021/08/14 11:21:44;;;;;;;12.48;4.78;;;;;;;25.21;46.34;102201.28;4982431;28;20124;-75
2021/08/14 11:24:37;;;;;;;12.52;4.75;;;;;;;24.87;46.51;102198.25;4978632;28;20147;-75
2021/08/14 11:27:22;;;;;;;13.00;4.70;;;;;;;25.21;47.44;102198.53;4976723;28;20062;-77